createdAt,value
2023-05-08T00:00:16.214Z,5.60
2023-05-08T00:12:09.930Z,5.50
2023-05-08T00:14:43.569Z,5.50
2023-05-08T00:17:17.540Z,5.40
2023-05-08T00:19:53.116Z,5.40
2023-05-08T00:22:26.882Z,5.40
2023-05-08T00:25:00.697Z,5.40
2023-05-08T00:27:34.976Z,5.40
2023-05-08T00:30:10.302Z,5.30
2023-05-08T00:32:44.394Z,5.20
2023-05-08T00:35:20.207Z,5.20
2023-05-08T00:37:54.058Z,5.20
2023-05-08T00:40:28.500Z,5.20
2023-05-08T00:43:02.465Z,5.20
2023-05-08T00:45:38.871Z,5.20
2023-05-08T00:48:12.541Z,5.20
2023-05-08T00:50:47.603Z,5.20
2023-05-08T00:53:23.356Z,5.10
2023-05-08T00:55:57.895Z,5.10
2023-05-08T00:58:33.710Z,5.10
2023-05-08T01:01:07.987Z,5.20
2023-05-08T01:03:42.625Z,5.20
2023-05-08T01:06:18.280Z,5.20
2023-05-08T01:08:52.348Z,5.20
2023-05-08T01:11:32.604Z,5.20
2023-05-08T01:14:28.209Z,5.30
2023-05-08T01:17:11.743Z,5.30
2023-05-08T01:20:08.160Z,5.20
2023-05-08T01:23:31.176Z,5.30
2023-05-08T01:26:52.476Z,5.30
2023-05-08T01:30:25.582Z,5.30
2023-05-08T01:47:41.461Z,5.30
2023-05-08T01:50:20.926Z,5.30
2023-05-08T01:52:59.856Z,5.20
2023-05-08T01:55:43.242Z,5.30
2023-05-08T01:58:22.532Z,5.30
2023-05-08T02:01:11.535Z,5.20
2023-05-08T02:08:52.589Z,5.20
2023-05-08T02:12:11.310Z,5.20
2023-05-08T02:15:02.758Z,5.20
2023-05-08T02:18:13.871Z,5.20
2023-05-08T02:21:01.749Z,5.20
2023-05-08T02:23:45.803Z,5.10
2023-05-08T02:34:21.257Z,5.10
2023-05-08T02:41:11.659Z,5.20
2023-05-08T03:03:50.636Z,5.00
2023-05-08T03:07:18.342Z,5.00
2023-05-08T03:10:05.608Z,5.00
2023-05-08T03:13:52.555Z,5.00
2023-05-08T03:26:34.518Z,5.00
2023-05-08T03:34:17.834Z,5.00
2023-05-08T03:41:19.331Z,5.00
2023-05-08T03:43:59.437Z,4.90
2023-05-08T03:46:36.342Z,5.00
2023-05-08T03:49:14.064Z,5.00
2023-05-08T04:05:30.846Z,5.00
2023-05-08T04:08:28.266Z,5.00
2023-05-08T04:11:49.730Z,5.00
2023-05-08T04:14:49.058Z,4.90
2023-05-08T04:17:42.127Z,4.90
2023-05-08T04:27:58.050Z,4.90
2023-05-08T04:30:33.636Z,4.90
2023-05-08T04:33:10.969Z,4.90
2023-05-08T04:35:50.070Z,5.00
2023-05-08T04:38:31.609Z,4.90
2023-05-08T04:41:08.638Z,4.90
2023-05-08T04:46:36.097Z,5.00
2023-05-08T04:49:29.481Z,4.90
2023-05-08T04:52:10.772Z,4.90
2023-05-08T04:54:51.237Z,4.90
2023-05-08T05:50:05.118Z,5.20
2023-05-08T05:53:10.541Z,5.30
2023-05-08T06:01:24.539Z,5.20
2023-05-08T06:08:23.751Z,5.20
2023-05-08T06:14:22.371Z,5.20
2023-05-08T06:16:58.277Z,5.20
2023-05-08T06:30:10.530Z,5.30
2023-05-08T06:33:34.113Z,5.40
2023-05-08T06:49:07.872Z,5.50
2023-05-08T06:51:45.994Z,5.50
2023-05-08T06:54:27.753Z,5.40
2023-05-08T06:57:11.039Z,5.50
2023-05-08T07:01:09.958Z,5.50
2023-05-08T07:04:12.043Z,5.50
2023-05-08T07:07:12.076Z,5.40
2023-05-08T07:13:02.142Z,5.40
2023-05-08T07:15:45.857Z,5.40
2023-05-08T07:22:59.017Z,5.40
2023-05-08T07:28:48.674Z,5.40
2023-05-08T07:39:35.744Z,5.50
2023-05-08T07:42:15.426Z,5.50
2023-05-08T07:44:54.745Z,5.50
2023-05-08T07:47:29.847Z,5.50
2023-05-08T07:50:04.325Z,5.50
2023-05-08T07:52:38.174Z,5.50
2023-05-08T07:55:16.477Z,5.50
2023-05-08T07:57:50.354Z,5.50
2023-05-08T08:00:24.824Z,5.40
2023-05-08T08:03:30.448Z,5.50
2023-05-08T08:06:38.946Z,5.50
2023-05-08T08:09:49.800Z,5.50
2023-05-08T08:12:48.366Z,5.60
2023-05-08T08:16:21.197Z,5.60
2023-05-08T08:28:33.951Z,5.70
2023-05-08T08:31:42.946Z,5.70
2023-05-08T08:44:58.963Z,5.80
2023-05-08T09:07:45.176Z,6.20
2023-05-08T09:10:55.699Z,6.30
2023-05-08T09:26:37.710Z,6.50
2023-05-08T09:42:26.454Z,6.50
2023-05-08T09:45:01.613Z,6.60
2023-05-08T10:01:14.546Z,6.80
2023-05-08T10:04:39.024Z,6.90
2023-05-08T10:07:15.159Z,7.00
2023-05-08T10:10:01.270Z,6.90
2023-05-08T10:12:38.087Z,7.00
2023-05-08T10:33:57.408Z,7.70
2023-05-08T10:36:33.632Z,7.90
2023-05-08T10:39:11.889Z,8.00
2023-05-08T10:41:49.419Z,8.00
2023-05-08T10:44:24.324Z,7.90
2023-05-08T10:48:12.437Z,8.00
2023-05-08T10:53:01.297Z,8.10
2023-05-08T10:59:49.068Z,8.40
2023-05-08T11:02:37.857Z,8.50
2023-05-08T11:05:49.668Z,8.60
2023-05-08T11:09:06.582Z,8.60
2023-05-08T11:13:00.341Z,8.70
2023-05-08T11:15:41.229Z,8.80
2023-05-08T11:18:19.404Z,8.80
2023-05-08T11:21:04.303Z,8.90
2023-05-08T11:23:38.939Z,8.90
2023-05-08T11:26:15.350Z,8.80
2023-05-08T11:28:59.554Z,8.70
2023-05-08T11:31:53.831Z,8.70
2023-05-08T11:34:46.692Z,8.60
2023-05-08T11:37:22.695Z,8.70
2023-05-08T11:40:45.865Z,8.80
2023-05-08T11:43:28.708Z,9.00
2023-05-08T11:46:04.390Z,9.10
2023-05-08T11:48:39.936Z,9.10
2023-05-08T11:51:14.278Z,9.20
2023-05-08T11:53:49.360Z,9.10
2023-05-08T11:56:23.217Z,9.10
2023-05-08T11:59:06.547Z,9.10
2023-05-08T12:01:40.286Z,9.10
2023-05-08T12:04:15.603Z,9.10
2023-05-08T12:06:51.460Z,9.20
2023-05-08T12:09:25.469Z,9.40
2023-05-08T12:11:59.415Z,9.60
2023-05-08T12:14:33.224Z,9.80
2023-05-08T12:17:07.963Z,9.90
2023-05-08T12:19:45.593Z,10.10
2023-05-08T12:22:19.717Z,10.10
2023-05-08T12:24:54.729Z,10.10
2023-05-08T12:27:28.666Z,10.10
2023-05-08T12:30:03.105Z,10.00
2023-05-08T12:32:40.700Z,9.90
2023-05-08T12:35:18.153Z,9.90
2023-05-08T12:38:03.076Z,9.90
2023-05-08T12:40:45.765Z,9.90
2023-05-08T12:43:19.843Z,9.80
2023-05-08T12:45:54.583Z,9.80
2023-05-08T12:48:31.729Z,9.80
2023-05-08T12:51:16.375Z,9.80
2023-05-08T12:53:59.067Z,9.70
2023-05-08T12:56:33.825Z,9.70
2023-05-08T12:59:13.640Z,9.70
2023-05-08T13:01:53.050Z,9.70
2023-05-08T13:04:30.880Z,9.80
2023-05-08T13:08:21.239Z,9.90
2023-05-08T13:11:14.201Z,10.20
2023-05-08T13:13:51.903Z,10.60
2023-05-08T13:16:48.774Z,10.80
2023-05-08T13:23:46.368Z,11.00
2023-05-08T13:26:28.870Z,11.20
2023-05-08T13:29:14.111Z,11.20
2023-05-08T13:31:51.799Z,11.20
2023-05-08T13:43:32.891Z,10.80
2023-05-08T13:46:09.995Z,10.60
2023-05-08T13:54:04.296Z,10.40
2023-05-08T13:56:38.064Z,10.30
2023-05-08T13:59:13.576Z,10.30
2023-05-08T14:01:47.360Z,10.30
2023-05-08T14:04:21.230Z,10.40
2023-05-08T14:06:55.107Z,10.60
2023-05-08T14:09:30.822Z,10.90
2023-05-08T15:21:40.030Z,10.00
2023-05-08T15:24:14.356Z,9.90
2023-05-08T15:26:48.265Z,10.00
2023-05-08T15:29:21.965Z,10.00
2023-05-08T15:31:55.834Z,10.10
2023-05-08T15:34:32.845Z,10.20
2023-05-08T15:37:11.738Z,10.30
2023-05-08T15:39:53.404Z,10.40
2023-05-08T15:55:39.042Z,10.70
2023-05-08T15:58:40.069Z,10.50
2023-05-08T16:01:49.845Z,10.40
2023-05-08T17:15:27.826Z,9.60
2023-05-08T17:26:24.717Z,9.50
2023-05-08T17:30:21.836Z,9.40
2023-05-08T17:34:21.256Z,9.40
2023-05-08T17:38:09.442Z,9.30
2023-05-08T17:40:45.957Z,9.20
2023-05-08T17:43:28.694Z,9.20
2023-05-08T17:46:11.750Z,9.20
2023-05-08T17:48:52.259Z,9.20
2023-05-08T17:51:41.188Z,9.20
2023-05-08T17:58:27.707Z,9.10
2023-05-08T18:01:47.245Z,9.00
2023-05-08T18:04:38.226Z,9.00
2023-05-08T18:10:51.868Z,8.80
2023-05-08T18:13:28.830Z,8.80
2023-05-08T18:16:06.329Z,8.70
2023-05-08T18:18:44.249Z,8.70
2023-05-08T18:21:27.015Z,8.70
2023-05-08T18:24:04.038Z,8.60
2023-05-08T18:26:38.631Z,8.50
2023-05-08T18:29:13.744Z,8.50
2023-05-08T18:31:47.513Z,8.40
2023-05-08T18:34:21.808Z,8.40
2023-05-08T18:36:58.140Z,8.40
2023-05-08T18:39:32.922Z,8.30
2023-05-08T18:45:10.451Z,8.20
2023-05-08T18:47:45.767Z,8.20
2023-05-08T18:50:20.824Z,8.20
2023-05-08T18:52:56.775Z,8.10
2023-05-08T18:55:41.024Z,8.10
2023-05-08T18:58:20.123Z,8.10
2023-05-08T19:01:01.911Z,8.10
2023-05-08T19:03:46.859Z,8.10
2023-05-08T19:06:25.172Z,8.10
2023-05-08T19:09:01.576Z,8.00
2023-05-08T19:11:43.310Z,8.00
2023-05-08T19:14:18.746Z,8.00
2023-05-08T19:16:58.368Z,8.00
2023-05-08T19:19:40.943Z,7.90
2023-05-08T19:22:17.425Z,7.90
2023-05-08T19:24:59.314Z,7.80
2023-05-08T19:27:37.821Z,7.70
2023-05-08T19:30:16.296Z,7.70
2023-05-08T19:32:54.928Z,7.60
2023-05-08T19:35:37.322Z,7.60
2023-05-08T19:38:15.790Z,7.50
2023-05-08T19:40:56.653Z,7.50
2023-05-08T19:43:32.546Z,7.50
2023-05-08T19:46:07.194Z,7.50
2023-05-08T19:48:44.653Z,7.40
2023-05-08T19:51:20.980Z,7.30
2023-05-08T19:53:56.293Z,7.30
2023-05-08T19:56:31.128Z,7.20
2023-05-08T19:59:06.195Z,7.20
2023-05-08T20:01:41.352Z,7.10
2023-05-08T20:04:17.892Z,7.00
2023-05-08T20:06:52.698Z,6.90
2023-05-08T20:09:28.100Z,6.90
2023-05-08T20:12:03.180Z,6.80
2023-05-08T20:14:41.737Z,6.80
2023-05-08T20:17:19.101Z,6.70
2023-05-08T20:19:55.511Z,6.60
2023-05-08T20:22:30.114Z,6.40
2023-05-08T20:25:05.309Z,6.30
2023-05-08T20:27:40.046Z,6.20
2023-05-08T20:30:14.908Z,6.10
2023-05-08T20:32:50.011Z,6.00
2023-05-08T20:35:26.377Z,5.80
2023-05-08T20:38:00.755Z,5.70
2023-05-08T20:40:38.047Z,5.60
2023-05-08T20:43:12.728Z,5.50
2023-05-08T20:53:48.786Z,5.20
2023-05-08T21:10:00.071Z,4.70
2023-05-08T21:25:02.768Z,4.30
2023-05-08T21:27:40.516Z,4.10
2023-05-08T21:30:16.599Z,4.10
2023-05-08T21:32:51.485Z,4.10
2023-05-08T21:35:25.440Z,4.00
2023-05-08T21:37:58.997Z,4.00
2023-05-08T21:40:32.523Z,3.90
2023-05-08T21:43:07.475Z,3.90
2023-05-08T21:45:40.985Z,3.90
2023-05-08T21:48:14.541Z,3.80
2023-05-08T21:50:48.162Z,3.70
2023-05-08T21:53:21.807Z,3.70
2023-05-08T21:55:55.484Z,3.70
2023-05-08T21:58:30.650Z,3.60
2023-05-08T22:01:04.389Z,3.50
2023-05-08T22:03:38.143Z,3.50
2023-05-08T22:06:11.709Z,3.50
2023-05-08T22:08:45.238Z,3.40
2023-05-08T22:11:18.852Z,3.40
2023-05-08T22:13:53.920Z,3.30
2023-05-08T22:16:27.676Z,3.30
2023-05-08T22:19:01.260Z,3.30
2023-05-08T22:21:35.139Z,3.20
2023-05-08T22:24:09.871Z,3.20
2023-05-08T22:26:43.453Z,3.10
2023-05-08T22:29:21.086Z,3.10
2023-05-08T22:31:54.650Z,3.10
2023-05-08T22:34:28.370Z,3.10
2023-05-08T22:37:01.986Z,3.00
2023-05-08T22:39:35.799Z,3.00
2023-05-08T22:42:09.925Z,3.00
2023-05-08T22:44:45.691Z,2.90
2023-05-08T22:47:19.554Z,2.90
2023-05-08T22:49:53.278Z,2.90
2023-05-08T22:52:27.007Z,2.80
2023-05-08T22:55:00.627Z,2.80
2023-05-08T22:57:34.165Z,2.80
2023-05-08T23:00:10.709Z,2.80
2023-05-08T23:02:44.389Z,2.80
2023-05-08T23:05:18.195Z,2.80
2023-05-08T23:07:52.083Z,2.70
2023-05-08T23:10:25.911Z,2.70
2023-05-08T23:12:59.502Z,2.70
2023-05-08T23:15:34.581Z,2.60
2023-05-08T23:18:08.316Z,2.60
2023-05-08T23:20:41.887Z,2.60
2023-05-08T23:23:15.436Z,2.60
2023-05-08T23:25:48.980Z,2.60
2023-05-08T23:28:22.538Z,2.60
2023-05-08T23:30:57.763Z,2.70
2023-05-08T23:33:31.569Z,2.70
2023-05-08T23:36:06.168Z,2.70
2023-05-08T23:38:39.794Z,2.80
2023-05-08T23:41:13.977Z,2.80
2023-05-08T23:43:47.685Z,2.80
2023-05-08T23:46:22.761Z,2.80
2023-05-08T23:48:56.588Z,2.90
2023-05-08T23:51:30.234Z,2.90
2023-05-08T23:54:04.005Z,2.90
2023-05-08T23:56:37.623Z,3.00
2023-05-08T23:59:11.532Z,3.00
